Terminal Aerodrome Forecast
Issued by NWS Wilmington, OH

Current Version | Previous Version | Text Only | Print | Product List | Glossary Off
Versions: 1 2 3 4 5 6 7 8 9 10 11 12 13 14 15 16 17 18

186
FTUS41 KILN 271125
TAFDAY
TAF
KDAY 271125Z 2712/2812 23004KT 4SM BR BKN025
     FM271500 20005KT P6SM VCTS SCT025CB BKN100
     FM272300 15005KT P6SM -SHRA VCTS SCT025CB BKN070
     FM280500 16004KT 5SM -SHRA BKN010 OVC025
     FM280800 15005KT 3SM -SHRA OVC009=

USA.gov is the U.S. government's official web portal to all federal, state and local government web resources and services.